Time;durP1;ratioP1;P1;durP2;ratioP2;P2;SDS_P1;SDS_P2;PMS_P1;PMS_P2;Temp;Humidity;BMP_temperature;BMP_pressure;BME280_temperature;BME280_humidity;BME280_pressure;Samples;Min_cycle;Max_cycle;Signal;HPM_P1;HPM_P2
2020/12/12 00:00:27;;;;;;;;;;;6.70;83.20;;;;;;5153990;27;19918;-83
2020/12/12 00:02:52;;;;;;;;;;;6.70;83.10;;;;;;5136789;27;19919;-82
2020/12/12 00:05:18;;;;;;;;;;;6.80;83.20;;;;;;5135556;27;20346;-83
2020/12/12 00:07:43;;;;;;;;;;;6.70;83.10;;;;;;5136326;27;20364;-83
2020/12/12 00:10:09;;;;;;;;;;;6.70;83.20;;;;;;5136144;27;20356;-83
2020/12/12 00:12:35;;;;;;;;;;;6.70;83.10;;;;;;5136034;27;19915;-83
2020/12/12 00:15:02;;;;;;;;;;;6.80;83.10;;;;;;5154536;27;19911;-83
2020/12/12 00:17:28;;;;;;;;;;;6.70;83.10;;;;;;5154177;27;19979;-83
2020/12/12 00:19:53;;;;;;;;;;;6.80;83.10;;;;;;5118629;27;20383;-82
2020/12/12 00:22:19;;;;;;;;;;;6.80;83.10;;;;;;5135609;27;19918;-83
2020/12/12 00:24:44;;;;;;;;;;;6.80;83.20;;;;;;5127212;27;19996;-82
2020/12/12 00:27:10;;;;;;;;;;;6.80;83.10;;;;;;5098253;27;19964;-82
2020/12/12 00:29:36;;;;;;;;;;;6.80;83.10;;;;;;5114859;27;19911;-82
2020/12/12 00:32:02;;;;;;;;;;;6.80;83.10;;;;;;5114986;27;19920;-83
2020/12/12 00:34:28;;;;;;;;;;;6.80;83.10;;;;;;5097802;27;19918;-82
2020/12/12 00:36:54;;;;;;;;;;;6.80;83.10;;;;;;5135744;27;20407;-83
2020/12/12 00:39:20;;;;;;;;;;;6.80;83.10;;;;;;5126492;27;20018;-83
2020/12/12 00:41:45;;;;;;;;;;;6.80;83.00;;;;;;5132606;27;20060;-84
2020/12/12 00:44:11;;;;;;;;;;;6.80;83.00;;;;;;5154508;27;19907;-84
2020/12/12 00:46:37;;;;;;;;;;;6.80;83.00;;;;;;5135231;27;19907;-84
2020/12/12 00:49:03;;;;;;;;;;;6.80;83.00;;;;;;5135583;27;19919;-83
2020/12/12 00:51:28;;;;;;;;;;;6.90;83.00;;;;;;5153514;27;19945;-83
2020/12/12 00:53:54;;;;;;;;;;;6.90;83.00;;;;;;5135420;27;19922;-84
2020/12/12 00:56:20;;;;;;;;;;;6.90;83.00;;;;;;5149905;27;19912;-84
2020/12/12 00:58:45;;;;;;;;;;;6.90;83.00;;;;;;5109234;27;19942;-84
2020/12/12 01:01:11;;;;;;;;;;;6.90;82.90;;;;;;5112865;27;19998;-83
2020/12/12 01:03:37;;;;;;;;;;;6.90;83.00;;;;;;5106546;27;20808;-83
2020/12/12 01:06:02;;;;;;;;;;;6.90;82.90;;;;;;5114735;27;19922;-83
2020/12/12 01:08:28;;;;;;;;;;;6.90;82.90;;;;;;5115744;27;19957;-83
2020/12/12 01:10:53;;;;;;;;;;;6.90;83.00;;;;;;5115804;27;20357;-83
2020/12/12 01:13:19;;;;;;;;;;;6.90;83.00;;;;;;5133863;27;19929;-83
2020/12/12 01:15:45;;;;;;;;;;;6.90;83.00;;;;;;5115850;27;19912;-83
2020/12/12 01:18:10;;;;;;;;;;;6.90;83.00;;;;;;5115868;27;19911;-83
2020/12/12 01:20:37;;;;;;;;;;;7.00;83.00;;;;;;5115541;27;20073;-83
2020/12/12 01:23:02;;;;;;;;;;;6.90;82.90;;;;;;5134136;27;19911;-83
2020/12/12 01:25:28;;;;;;;;;;;7.00;82.90;;;;;;5124968;27;20280;-83
2020/12/12 01:27:53;;;;;;;;;;;7.00;82.90;;;;;;5117260;28;20045;-83
2020/12/12 01:30:19;;;;;;;;;;;7.00;82.90;;;;;;5115300;28;20349;-83
2020/12/12 01:32:44;;;;;;;;;;;7.00;82.90;;;;;;5115564;28;19923;-83
2020/12/12 01:35:10;;;;;;;;;;;7.00;82.90;;;;;;5115725;28;19907;-83
2020/12/12 01:37:35;;;;;;;;;;;7.00;82.90;;;;;;5115307;28;20264;-83
2020/12/12 01:40:01;;;;;;;;;;;7.00;82.90;;;;;;5095049;28;20342;-83
2020/12/12 01:42:26;;;;;;;;;;;7.00;82.80;;;;;;5113130;28;19908;-83
2020/12/12 01:44:56;;;;;;;;;;;7.00;82.80;;;;;;5097496;28;20368;-83
2020/12/12 01:47:22;;;;;;;;;;;7.10;82.90;;;;;;5115942;28;19908;-83
2020/12/12 01:49:49;;;;;;;;;;;7.10;82.80;;;;;;5116321;28;19912;-83
2020/12/12 01:52:14;;;;;;;;;;;7.10;82.80;;;;;;5116168;28;19916;-83
2020/12/12 01:54:40;;;;;;;;;;;7.10;82.80;;;;;;5117033;28;19934;-83
2020/12/12 01:57:07;;;;;;;;;;;7.10;82.80;;;;;;5109941;27;19912;-83
2020/12/12 01:59:33;;;;;;;;;;;7.10;82.80;;;;;;5137630;27;19907;-83
2020/12/12 02:02:00;;;;;;;;;;;7.10;82.80;;;;;;5136382;27;20669;-83
2020/12/12 02:04:27;;;;;;;;;;;7.10;82.70;;;;;;5118190;27;20280;-83
2020/12/12 02:06:52;;;;;;;;;;;7.10;82.80;;;;;;5115295;27;20036;-83
2020/12/12 02:09:18;;;;;;;;;;;7.10;82.80;;;;;;5113007;28;20584;-83
2020/12/12 02:11:44;;;;;;;;;;;7.10;82.70;;;;;;5114289;28;19912;-83
2020/12/12 02:14:11;;;;;;;;;;;7.10;82.70;;;;;;5114629;28;19908;-83
2020/12/12 02:17:02;;;;;;;;;;;7.20;82.80;;;;;;5113963;28;20300;-83
2020/12/12 02:19:27;;;;;;;;;;;7.20;82.70;;;;;;5098022;28;19916;-83
2020/12/12 02:21:53;;;;;;;;;;;7.20;82.70;;;;;;5114678;28;20019;-83
2020/12/12 02:24:19;;;;;;;;;;;7.20;82.80;;;;;;5115694;27;20394;-83
2020/12/12 02:26:45;;;;;;;;;;;7.20;82.70;;;;;;5134871;27;20014;-83
2020/12/12 02:29:11;;;;;;;;;;;7.20;82.80;;;;;;5134609;27;19915;-83
2020/12/12 02:31:37;;;;;;;;;;;7.20;82.80;;;;;;5116444;27;19915;-83
2020/12/12 02:34:03;;;;;;;;;;;7.20;82.80;;;;;;5136088;27;19911;-83
2020/12/12 02:36:32;;;;;;;;;;;7.20;82.80;;;;;;5134395;27;19915;-83
2020/12/12 02:38:58;;;;;;;;;;;7.20;82.80;;;;;;5136053;27;19914;-83
2020/12/12 02:41:23;;;;;;;;;;;7.20;82.80;;;;;;5134263;27;19927;-83
2020/12/12 02:43:49;;;;;;;;;;;7.20;82.80;;;;;;5117460;27;20284;-83
2020/12/12 02:46:14;;;;;;;;;;;7.20;82.80;;;;;;5117404;27;19916;-83
2020/12/12 02:48:40;;;;;;;;;;;7.20;82.80;;;;;;5117060;27;19916;-83
2020/12/12 02:51:05;;;;;;;;;;;7.30;82.80;;;;;;5134689;27;20010;-83
2020/12/12 02:53:31;;;;;;;;;;;7.30;82.80;;;;;;5135305;27;19921;-83
2020/12/12 02:55:56;;;;;;;;;;;7.30;82.80;;;;;;5116997;27;20018;-83
2020/12/12 02:58:22;;;;;;;;;;;7.30;82.80;;;;;;5113519;28;19920;-83
2020/12/12 03:00:47;;;;;;;;;;;7.30;82.80;;;;;;5113770;28;19908;-83
2020/12/12 03:03:13;;;;;;;;;;;7.30;82.80;;;;;;5113759;28;20434;-83
2020/12/12 03:05:38;;;;;;;;;;;7.30;82.80;;;;;;5114654;28;19916;-83
2020/12/12 03:08:04;;;;;;;;;;;7.30;82.90;;;;;;5113324;28;20288;-83
2020/12/12 03:10:29;;;;;;;;;;;7.30;82.80;;;;;;5096169;28;19912;-83
2020/12/12 03:12:55;;;;;;;;;;;7.30;82.80;;;;;;5114441;27;20376;-84
2020/12/12 03:15:20;;;;;;;;;;;7.30;82.80;;;;;;5113340;28;19912;-83
2020/12/12 03:17:46;;;;;;;;;;;7.30;82.80;;;;;;5112998;28;19912;-83
2020/12/12 03:20:11;;;;;;;;;;;7.30;82.80;;;;;;5096314;28;19927;-83
2020/12/12 03:22:37;;;;;;;;;;;7.30;82.80;;;;;;5095887;28;19912;-83
2020/12/12 03:25:03;;;;;;;;;;;7.30;82.80;;;;;;5114388;27;19920;-83
2020/12/12 03:27:28;;;;;;;;;;;7.30;82.70;;;;;;5112325;28;19912;-83
2020/12/12 03:29:54;;;;;;;;;;;7.40;82.80;;;;;;5113231;28;19911;-83
2020/12/12 03:32:19;;;;;;;;;;;7.30;82.80;;;;;;5113089;28;20084;-84
2020/12/12 03:34:45;;;;;;;;;;;7.40;82.80;;;;;;5095734;28;20312;-83
2020/12/12 03:37:10;;;;;;;;;;;7.40;82.80;;;;;;5125984;27;19912;-83
2020/12/12 03:39:36;;;;;;;;;;;7.40;82.80;;;;;;5115831;27;20322;-83
2020/12/12 03:42:01;;;;;;;;;;;7.40;82.80;;;;;;5133624;27;19919;-83
2020/12/12 03:44:27;;;;;;;;;;;7.40;82.80;;;;;;5134356;27;20013;-83
2020/12/12 03:46:52;;;;;;;;;;;7.40;82.80;;;;;;5115372;27;19951;-83
2020/12/12 03:49:18;;;;;;;;;;;7.40;82.70;;;;;;5134597;27;19965;-83
2020/12/12 03:51:43;;;;;;;;;;;7.40;82.80;;;;;;5133165;27;19926;-83
2020/12/12 03:54:09;;;;;;;;;;;7.40;82.80;;;;;;5132527;27;20006;-84
2020/12/12 03:56:34;;;;;;;;;;;7.40;82.80;;;;;;5132971;27;19912;-85
2020/12/12 03:59:00;;;;;;;;;;;7.40;82.80;;;;;;5133123;27;20276;-84
2020/12/12 04:01:25;;;;;;;;;;;7.40;82.80;;;;;;5134035;27;19952;-84
2020/12/12 04:03:51;;;;;;;;;;;7.40;82.80;;;;;;5115934;27;20321;-84
2020/12/12 04:06:16;;;;;;;;;;;7.40;82.70;;;;;;5115843;27;19922;-84
2020/12/12 04:08:42;;;;;;;;;;;7.50;82.80;;;;;;5132673;27;19942;-85
2020/12/12 04:11:07;;;;;;;;;;;7.50;82.70;;;;;;5115258;27;19943;-84
2020/12/12 04:13:33;;;;;;;;;;;7.50;82.70;;;;;;5131650;27;20009;-85
2020/12/12 04:15:58;;;;;;;;;;;7.50;82.70;;;;;;5132672;27;19907;-84
2020/12/12 04:18:24;;;;;;;;;;;7.50;82.70;;;;;;5134007;27;19908;-85
2020/12/12 04:20:49;;;;;;;;;;;7.50;82.70;;;;;;5132735;27;20424;-85
2020/12/12 04:23:16;;;;;;;;;;;7.50;82.70;;;;;;5132671;27;20289;-84
2020/12/12 04:25:42;;;;;;;;;;;7.50;82.60;;;;;;5117628;27;19916;-85
2020/12/12 04:28:07;;;;;;;;;;;7.60;82.70;;;;;;5093488;27;20296;-84
2020/12/12 04:30:32;;;;;;;;;;;7.60;82.80;;;;;;5119554;27;20361;-84
2020/12/12 04:32:58;;;;;;;;;;;7.60;82.70;;;;;;5116135;27;19957;-84
2020/12/12 04:35:24;;;;;;;;;;;7.60;82.70;;;;;;5094673;27;19920;-84
2020/12/12 04:37:49;;;;;;;;;;;7.60;82.60;;;;;;5131906;27;19911;-84
2020/12/12 04:40:15;;;;;;;;;;;7.60;82.70;;;;;;5131624;27;20330;-84
2020/12/12 04:42:42;;;;;;;;;;;7.60;82.70;;;;;;5131810;27;19914;-84
2020/12/12 04:45:08;;;;;;;;;;;7.60;82.70;;;;;;5114693;27;19912;-84
2020/12/12 04:47:34;;;;;;;;;;;7.60;82.70;;;;;;5111013;28;19912;-84
2020/12/12 04:50:00;;;;;;;;;;;7.60;82.60;;;;;;5111431;28;19985;-84
2020/12/12 04:52:29;;;;;;;;;;;7.60;82.60;;;;;;5094472;28;19923;-84
2020/12/12 04:54:55;;;;;;;;;;;7.60;82.60;;;;;;5111380;28;19922;-83
2020/12/12 04:57:20;;;;;;;;;;;7.60;82.60;;;;;;5094501;28;19916;-83
2020/12/12 04:59:47;;;;;;;;;;;7.60;82.60;;;;;;5104095;28;19935;-83
2020/12/12 05:02:13;;;;;;;;;;;7.60;82.60;;;;;;5121755;27;20386;-83
2020/12/12 05:04:39;;;;;;;;;;;7.60;82.60;;;;;;5094443;28;19923;-84
2020/12/12 05:07:05;;;;;;;;;;;7.60;82.60;;;;;;5111320;28;19908;-84
2020/12/12 05:09:30;;;;;;;;;;;7.60;82.60;;;;;;5110996;28;19915;-84
2020/12/12 05:11:56;;;;;;;;;;;7.60;82.60;;;;;;5111450;28;19928;-83
2020/12/12 05:14:22;;;;;;;;;;;7.70;82.70;;;;;;5111119;28;20321;-84
2020/12/12 05:16:48;;;;;;;;;;;7.70;82.70;;;;;;5110755;28;20318;-84
2020/12/12 05:19:13;;;;;;;;;;;7.70;82.70;;;;;;5110827;28;20010;-83
2020/12/12 05:21:49;;;;;;;;;;;7.70;82.70;;;;;;5110642;28;19922;-84
2020/12/12 05:24:15;;;;;;;;;;;7.70;82.60;;;;;;5120546;27;20346;-83
2020/12/12 05:26:42;;;;;;;;;;;7.70;82.60;;;;;;5127561;27;20003;-83
2020/12/12 05:29:07;;;;;;;;;;;7.70;82.60;;;;;;5108961;28;19908;-82
2020/12/12 05:31:32;;;;;;;;;;;7.70;82.60;;;;;;5094181;28;19924;-83
2020/12/12 05:34:07;;;;;;;;;;;7.70;82.70;;;;;;5141574;27;19915;-83
2020/12/12 05:36:33;;;;;;;;;;;7.70;82.70;;;;;;5127916;28;19912;-83
2020/12/12 05:38:59;;;;;;;;;;;7.70;82.70;;;;;;5092322;28;20011;-83
2020/12/12 05:45:31;;;;;;;;;;;7.70;82.70;;;;;;5072744;28;19923;-88
2020/12/12 05:52:04;;;;;;;;;;;7.70;82.60;;;;;;5012072;28;19918;-89
2020/12/12 05:54:30;;;;;;;;;;;7.80;82.60;;;;;;4991777;28;19922;-87
2020/12/12 05:56:59;;;;;;;;;;;7.80;82.70;;;;;;4995196;28;19913;-87
2020/12/12 05:59:27;;;;;;;;;;;7.70;82.70;;;;;;5014848;28;20359;-88
2020/12/12 06:01:57;;;;;;;;;;;7.80;82.70;;;;;;5014522;28;19913;-87
2020/12/12 06:04:24;;;;;;;;;;;7.80;82.70;;;;;;5014729;28;19913;-87
2020/12/12 06:06:51;;;;;;;;;;;7.80;82.80;;;;;;5014365;28;19913;-87
2020/12/12 06:09:21;;;;;;;;;;;7.80;82.70;;;;;;5013583;28;19960;-87
2020/12/12 06:11:47;;;;;;;;;;;7.80;82.70;;;;;;5014109;28;19921;-86
2020/12/12 06:14:13;;;;;;;;;;;7.80;82.70;;;;;;5011708;28;20031;-88
2020/12/12 06:16:39;;;;;;;;;;;7.80;82.70;;;;;;4998170;28;19909;-87
2020/12/12 06:19:09;;;;;;;;;;;7.80;82.70;;;;;;5037386;28;19966;-94
2020/12/12 06:21:45;;;;;;;;;;;7.80;82.70;;;;;;5056121;28;19916;-94
2020/12/12 06:24:15;;;;;;;;;;;7.80;82.70;;;;;;5056084;28;20214;-94
2020/12/12 06:26:59;;;;;;;;;;;7.80;82.70;;;;;;5056165;28;20001;-93
2020/12/12 06:29:52;;;;;;;;;;;7.80;82.70;;;;;;5056842;28;20007;-94
2020/12/12 06:32:18;;;;;;;;;;;7.80;82.70;;;;;;5055616;28;19935;-93
2020/12/12 06:34:48;;;;;;;;;;;7.80;82.70;;;;;;5043166;28;20269;-94
2020/12/12 06:37:28;;;;;;;;;;;7.90;82.70;;;;;;5059770;28;20006;-95
2020/12/12 06:39:55;;;;;;;;;;;7.90;82.80;;;;;;5059808;28;19916;-93
2020/12/12 06:42:47;;;;;;;;;;;7.90;82.70;;;;;;5059260;28;19909;-94
2020/12/12 06:45:15;;;;;;;;;;;7.90;82.70;;;;;;5075431;28;19999;-94
2020/12/12 06:47:42;;;;;;;;;;;7.90;82.60;;;;;;5079663;28;20282;-94
2020/12/12 06:50:09;;;;;;;;;;;7.90;82.70;;;;;;5079692;28;19912;-94
2020/12/12 06:52:50;;;;;;;;;;;7.90;82.70;;;;;;5078577;28;19923;-92
2020/12/12 06:58:29;;;;;;;;;;;7.90;82.70;;;;;;5096540;28;20383;-90
2020/12/12 07:07:11;;;;;;;;;;;7.90;82.60;;;;;;5076286;28;20320;-92
2020/12/12 07:21:58;;;;;;;;;;;8.00;82.60;;;;;;5076279;28;19935;-90
2020/12/12 07:27:32;;;;;;;;;;;8.00;82.60;;;;;;5075801;28;19920;-90
2020/12/12 07:33:20;;;;;;;;;;;8.00;82.70;;;;;;5095743;28;20391;-91
2020/12/12 07:59:12;;;;;;;;;;;8.00;82.60;;;;;;4990192;28;19917;-89
2020/12/12 08:01:59;;;;;;;;;;;8.00;82.70;;;;;;4977193;28;20353;-86
2020/12/12 08:04:46;;;;;;;;;;;8.00;82.70;;;;;;5004805;28;19910;-88
2020/12/12 08:07:12;;;;;;;;;;;8.00;82.70;;;;;;4996607;28;20276;-91
2020/12/12 08:12:47;;;;;;;;;;;8.00;82.70;;;;;;5012860;28;19920;-89
2020/12/12 08:15:23;;;;;;;;;;;8.00;82.70;;;;;;4997826;28;19910;-88
2020/12/12 08:18:30;;;;;;;;;;;8.00;82.70;;;;;;4973828;28;19949;-88
2020/12/12 08:21:15;;;;;;;;;;;8.00;82.70;;;;;;4973397;28;19910;-88
2020/12/12 08:23:58;;;;;;;;;;;8.00;82.70;;;;;;4973506;28;19911;-87
2020/12/12 08:26:35;;;;;;;;;;;8.00;82.70;;;;;;4974145;28;19915;-88
2020/12/12 08:35:35;;;;;;;;;;;8.10;82.80;;;;;;4993383;28;20005;-88
2020/12/12 08:41:22;;;;;;;;;;;8.10;82.70;;;;;;4995181;28;19987;-87
2020/12/12 08:44:19;;;;;;;;;;;8.10;82.70;;;;;;4979356;28;19910;-87
2020/12/12 08:50:31;;;;;;;;;;;8.10;82.90;;;;;;4994840;28;19913;-88
2020/12/12 08:53:38;;;;;;;;;;;8.10;82.80;;;;;;4973722;28;19925;-88
2020/12/12 08:56:12;;;;;;;;;;;8.10;82.90;;;;;;5001458;28;19956;-89
2020/12/12 08:58:39;;;;;;;;;;;8.10;82.90;;;;;;5063525;28;19916;-89
2020/12/12 09:01:11;;;;;;;;;;;8.10;82.90;;;;;;5072764;28;19908;-91
2020/12/12 09:22:20;;;;;;;;;;;8.30;82.80;;;;;;5052252;28;19920;-93
2020/12/12 09:25:04;;;;;;;;;;;8.30;82.90;;;;;;5036818;28;19919;-88
2020/12/12 09:28:08;;;;;;;;;;;8.30;82.90;;;;;;5024666;28;19998;-87
2020/12/12 09:47:09;;;;;;;;;;;8.50;82.80;;;;;;5016455;28;19956;-89
2020/12/12 09:49:34;;;;;;;;;;;8.50;82.80;;;;;;5052829;28;19917;-87
2020/12/12 09:52:00;;;;;;;;;;;8.50;82.80;;;;;;5052432;28;19913;-88
2020/12/12 09:54:25;;;;;;;;;;;8.60;82.80;;;;;;5067235;28;19916;-88
2020/12/12 09:56:51;;;;;;;;;;;8.60;82.80;;;;;;5053784;28;19935;-88
2020/12/12 09:59:17;;;;;;;;;;;8.60;82.80;;;;;;5076861;28;19923;-88
2020/12/12 10:01:43;;;;;;;;;;;8.60;82.90;;;;;;5035767;28;19913;-89
2020/12/12 10:04:09;;;;;;;;;;;8.60;82.90;;;;;;5052355;28;19913;-89
2020/12/12 10:06:37;;;;;;;;;;;8.60;83.00;;;;;;5039278;28;19924;-88
2020/12/12 10:09:03;;;;;;;;;;;8.70;83.00;;;;;;5040900;28;20007;-89
2020/12/12 10:11:29;;;;;;;;;;;8.70;82.90;;;;;;5060775;28;20382;-89
2020/12/12 10:13:54;;;;;;;;;;;8.70;83.00;;;;;;5084351;28;19966;-88
2020/12/12 10:16:20;;;;;;;;;;;8.80;83.00;;;;;;5059339;28;19920;-87
2020/12/12 10:18:45;;;;;;;;;;;8.80;83.00;;;;;;5074009;28;19913;-86
2020/12/12 10:21:11;;;;;;;;;;;8.80;83.10;;;;;;5084349;28;19969;-87
2020/12/12 10:23:36;;;;;;;;;;;8.80;83.00;;;;;;5074361;28;19916;-84
2020/12/12 10:26:08;;;;;;;;;;;8.90;83.00;;;;;;5076438;28;20380;-86
2020/12/12 10:28:46;;;;;;;;;;;8.90;83.00;;;;;;5075768;28;20019;-88
2020/12/12 10:37:31;;;;;;;;;;;9.00;83.10;;;;;;4976196;28;19953;-86
2020/12/12 10:40:16;;;;;;;;;;;9.00;83.00;;;;;;5032755;28;19909;-85
2020/12/12 10:42:41;;;;;;;;;;;9.00;83.10;;;;;;5018536;28;19932;-85
2020/12/12 10:45:07;;;;;;;;;;;9.00;83.10;;;;;;5018326;28;20386;-85
2020/12/12 10:47:33;;;;;;;;;;;9.10;83.20;;;;;;5018402;28;20359;-85
2020/12/12 10:49:59;;;;;;;;;;;9.10;83.20;;;;;;5018391;28;19913;-85
2020/12/12 10:52:25;;;;;;;;;;;9.10;83.10;;;;;;5017790;28;19936;-85
2020/12/12 10:54:51;;;;;;;;;;;9.10;83.30;;;;;;5018325;28;20330;-85
2020/12/12 10:57:19;;;;;;;;;;;9.20;83.30;;;;;;5002040;28;19918;-85
2020/12/12 10:59:44;;;;;;;;;;;9.20;83.20;;;;;;5016931;28;19909;-83
2020/12/12 11:02:24;;;;;;;;;;;9.20;83.20;;;;;;5022813;28;19916;-84
2020/12/12 11:04:52;;;;;;;;;;;9.30;83.20;;;;;;5033854;28;19909;-84
2020/12/12 11:07:17;;;;;;;;;;;9.30;83.10;;;;;;5034352;28;19960;-84
2020/12/12 11:09:43;;;;;;;;;;;9.30;83.00;;;;;;5034183;28;19917;-84
2020/12/12 11:12:12;;;;;;;;;;;9.30;83.00;;;;;;5034415;28;19913;-84
2020/12/12 11:14:37;;;;;;;;;;;9.30;83.00;;;;;;5034381;28;19999;-84
2020/12/12 11:17:03;;;;;;;;;;;9.40;83.00;;;;;;5017193;28;19955;-84
2020/12/12 11:19:28;;;;;;;;;;;9.40;83.00;;;;;;5034049;28;19920;-84
2020/12/12 11:21:54;;;;;;;;;;;9.40;83.00;;;;;;5034476;28;19927;-84
2020/12/12 11:24:21;;;;;;;;;;;9.40;83.00;;;;;;5034283;28;19913;-84
2020/12/12 11:26:47;;;;;;;;;;;9.50;83.00;;;;;;5033766;28;19920;-84
2020/12/12 11:29:15;;;;;;;;;;;9.50;83.00;;;;;;5034054;28;19913;-84
2020/12/12 11:31:44;;;;;;;;;;;9.50;82.90;;;;;;5048474;28;20389;-84
2020/12/12 11:34:16;;;;;;;;;;;9.50;82.90;;;;;;5108167;28;20273;-84
2020/12/12 11:42:46;;;;;;;;;;;9.60;82.90;;;;;;5112745;28;19924;-82
2020/12/12 11:46:57;;;;;;;;;;;9.70;82.90;;;;;;5101343;28;19912;-82
2020/12/12 11:49:23;;;;;;;;;;;9.70;82.90;;;;;;5115270;28;20245;-82
2020/12/12 11:51:49;;;;;;;;;;;9.70;82.80;;;;;;5113603;28;19964;-82
2020/12/12 11:54:14;;;;;;;;;;;9.70;82.80;;;;;;5115130;28;19912;-82
2020/12/12 11:56:40;;;;;;;;;;;9.70;82.80;;;;;;5096863;28;19921;-82
2020/12/12 11:59:05;;;;;;;;;;;9.80;82.90;;;;;;5097122;28;20360;-82
2020/12/12 12:01:31;;;;;;;;;;;9.80;82.80;;;;;;5115166;28;19950;-82
2020/12/12 12:03:56;;;;;;;;;;;9.80;82.90;;;;;;5096552;28;19981;-82
2020/12/12 12:06:23;;;;;;;;;;;9.80;82.90;;;;;;5096900;28;19912;-82
2020/12/12 12:11:34;;;;;;;;;;;9.80;82.80;;;;;;5094915;28;19912;-81
2020/12/12 12:14:07;;;;;;;;;;;9.90;82.80;;;;;;5076026;28;20018;-82
2020/12/12 12:16:36;;;;;;;;;;;9.90;82.80;;;;;;5113876;28;19908;-82
2020/12/12 12:19:09;;;;;;;;;;;9.90;82.80;;;;;;5078477;28;20430;-82
2020/12/12 12:21:35;;;;;;;;;;;9.90;82.80;;;;;;5114625;28;19912;-82
2020/12/12 12:24:10;;;;;;;;;;;10.00;82.80;;;;;;5113784;28;19915;-82
2020/12/12 12:26:37;;;;;;;;;;;9.90;82.70;;;;;;5096070;28;20006;-82
2020/12/12 12:29:03;;;;;;;;;;;10.00;82.80;;;;;;5109404;28;19918;-81
2020/12/12 12:31:29;;;;;;;;;;;10.00;82.70;;;;;;5111297;28;20361;-82
2020/12/12 12:33:54;;;;;;;;;;;10.00;82.70;;;;;;5113940;28;19912;-82
2020/12/12 12:36:22;;;;;;;;;;;10.10;82.70;;;;;;5112137;28;19943;-82
2020/12/12 12:38:47;;;;;;;;;;;10.10;82.70;;;;;;5104220;28;20419;-82
2020/12/12 12:41:13;;;;;;;;;;;10.10;82.70;;;;;;5110816;28;19920;-82
2020/12/12 12:43:38;;;;;;;;;;;10.10;82.70;;;;;;5108996;28;19962;-81
2020/12/12 12:46:04;;;;;;;;;;;10.10;82.70;;;;;;5113029;28;19964;-81
2020/12/12 12:48:29;;;;;;;;;;;10.10;82.70;;;;;;5109390;28;19917;-80
2020/12/12 12:50:55;;;;;;;;;;;10.10;82.70;;;;;;5079391;28;19912;-81
2020/12/12 12:53:21;;;;;;;;;;;10.20;82.80;;;;;;5114116;28;19920;-81
2020/12/12 12:55:46;;;;;;;;;;;10.20;82.80;;;;;;5090821;28;20392;-82
2020/12/12 12:58:12;;;;;;;;;;;10.20;82.80;;;;;;5075294;28;20372;-82
2020/12/12 13:00:39;;;;;;;;;;;10.30;82.90;;;;;;5093598;28;19916;-82
2020/12/12 13:03:05;;;;;;;;;;;10.20;82.80;;;;;;5058769;28;20361;-82
2020/12/12 13:05:30;;;;;;;;;;;10.30;82.90;;;;;;5075543;28;19920;-82
2020/12/12 13:07:56;;;;;;;;;;;10.30;82.80;;;;;;5058411;28;19916;-83
2020/12/12 13:10:21;;;;;;;;;;;10.30;82.80;;;;;;5102096;28;20735;-82
2020/12/12 13:12:47;;;;;;;;;;;10.30;82.80;;;;;;5081505;28;19919;-83
2020/12/12 13:15:12;;;;;;;;;;;10.30;82.90;;;;;;5087976;28;19958;-82
2020/12/12 13:17:38;;;;;;;;;;;10.40;82.90;;;;;;5108753;28;19968;-82
2020/12/12 13:22:32;;;;;;;;;;;10.40;82.90;;;;;;5113292;28;19912;-83
2020/12/12 13:24:57;;;;;;;;;;;10.40;82.90;;;;;;5085692;28;19927;-83
2020/12/12 13:27:23;;;;;;;;;;;10.40;82.90;;;;;;5073236;28;19924;-84
2020/12/12 13:32:23;;;;;;;;;;;10.50;82.90;;;;;;5103534;28;19958;-85
2020/12/12 13:34:49;;;;;;;;;;;10.50;82.90;;;;;;5102316;28;19912;-85
2020/12/12 13:37:15;;;;;;;;;;;10.50;82.90;;;;;;5074880;28;19909;-85
2020/12/12 13:39:43;;;;;;;;;;;10.50;82.90;;;;;;5072066;28;19916;-85
2020/12/12 13:42:11;;;;;;;;;;;10.50;82.90;;;;;;5077299;28;19920;-85
2020/12/12 13:44:37;;;;;;;;;;;10.60;82.90;;;;;;5058029;28;20384;-85
2020/12/12 13:47:02;;;;;;;;;;;10.60;82.90;;;;;;5056390;28;19916;-85
2020/12/12 13:49:28;;;;;;;;;;;10.60;82.90;;;;;;5057072;28;20358;-86
2020/12/12 13:51:53;;;;;;;;;;;10.60;82.80;;;;;;5075488;28;20003;-85
2020/12/12 13:54:19;;;;;;;;;;;10.60;82.80;;;;;;5091534;28;19913;-86
2020/12/12 13:56:44;;;;;;;;;;;10.60;82.80;;;;;;5056148;28;19912;-86
2020/12/12 13:59:11;;;;;;;;;;;10.60;82.80;;;;;;5075728;28;19908;-85
2020/12/12 14:01:37;;;;;;;;;;;10.70;82.90;;;;;;5041528;28;19920;-86
2020/12/12 14:04:03;;;;;;;;;;;10.70;82.80;;;;;;5075272;28;19913;-85
2020/12/12 14:06:29;;;;;;;;;;;10.60;82.80;;;;;;5057727;28;19963;-86
2020/12/12 14:25:08;;;;;;;;;;;10.80;82.80;;;;;;5060112;28;20298;-86
2020/12/12 14:30:18;;;;;;;;;;;10.80;82.80;;;;;;5075530;28;19920;-86
2020/12/12 14:32:46;;;;;;;;;;;10.80;82.80;;;;;;5090800;28;19913;-86
2020/12/12 14:35:12;;;;;;;;;;;10.80;82.80;;;;;;5040680;28;19916;-86
2020/12/12 14:37:39;;;;;;;;;;;10.80;82.80;;;;;;5040486;28;19919;-86
2020/12/12 14:40:05;;;;;;;;;;;10.80;82.80;;;;;;5096452;28;19931;-86
2020/12/12 14:42:31;;;;;;;;;;;10.80;82.80;;;;;;5060395;28;19920;-86
2020/12/12 14:44:56;;;;;;;;;;;10.80;82.90;;;;;;5076736;28;19934;-86
2020/12/12 14:47:22;;;;;;;;;;;10.80;82.80;;;;;;5060322;28;19920;-87
2020/12/12 14:49:48;;;;;;;;;;;10.80;82.80;;;;;;5059784;28;19916;-86
2020/12/12 14:52:13;;;;;;;;;;;10.80;82.90;;;;;;5058990;28;19912;-86
2020/12/12 14:54:39;;;;;;;;;;;10.80;82.80;;;;;;5060222;28;19918;-86
2020/12/12 14:57:06;;;;;;;;;;;10.80;82.90;;;;;;5076619;28;19916;-86
2020/12/12 14:59:31;;;;;;;;;;;10.80;82.90;;;;;;5060133;28;19959;-86
2020/12/12 15:01:57;;;;;;;;;;;10.80;82.90;;;;;;5059594;28;19962;-86
2020/12/12 15:04:22;;;;;;;;;;;10.80;82.90;;;;;;5110636;28;19916;-86
2020/12/12 15:06:48;;;;;;;;;;;10.80;82.90;;;;;;5059744;28;20318;-87
2020/12/12 15:09:14;;;;;;;;;;;10.80;82.90;;;;;;5060013;28;19923;-86
2020/12/12 15:11:39;;;;;;;;;;;10.80;82.90;;;;;;5094759;28;19911;-86
2020/12/12 15:14:10;;;;;;;;;;;10.80;82.90;;;;;;5094409;28;20312;-86
2020/12/12 15:16:36;;;;;;;;;;;10.80;82.90;;;;;;5076597;28;19933;-87
2020/12/12 15:19:02;;;;;;;;;;;10.80;82.90;;;;;;5059359;28;19916;-86
2020/12/12 15:21:28;;;;;;;;;;;10.80;82.90;;;;;;5076692;28;19920;-86
2020/12/12 15:23:53;;;;;;;;;;;10.90;82.90;;;;;;5059374;28;19958;-86
2020/12/12 15:26:19;;;;;;;;;;;10.80;82.90;;;;;;5076343;28;19908;-86
2020/12/12 15:28:44;;;;;;;;;;;10.80;82.90;;;;;;5059448;28;19912;-86
2020/12/12 15:31:10;;;;;;;;;;;10.80;82.90;;;;;;5059268;28;19955;-86
2020/12/12 15:33:42;;;;;;;;;;;10.80;82.90;;;;;;5059697;28;20365;-86
2020/12/12 15:36:08;;;;;;;;;;;10.80;82.90;;;;;;5059839;28;19934;-86
2020/12/12 15:38:35;;;;;;;;;;;10.80;82.90;;;;;;5075947;28;19908;-85
2020/12/12 15:41:00;;;;;;;;;;;10.80;82.90;;;;;;5079529;28;20362;-86
2020/12/12 15:43:26;;;;;;;;;;;10.80;83.00;;;;;;5073795;28;19923;-86
2020/12/12 15:45:51;;;;;;;;;;;10.80;83.00;;;;;;5055734;28;19913;-86
2020/12/12 15:48:18;;;;;;;;;;;10.80;83.00;;;;;;5055872;28;19913;-86
2020/12/12 15:50:44;;;;;;;;;;;10.80;83.00;;;;;;5055959;28;20251;-86
2020/12/12 15:53:12;;;;;;;;;;;10.80;83.10;;;;;;5055381;28;19915;-86
2020/12/12 15:55:42;;;;;;;;;;;10.80;83.10;;;;;;5055899;28;20419;-86
2020/12/12 15:58:07;;;;;;;;;;;10.80;83.00;;;;;;5055277;28;19912;-86
2020/12/12 16:00:34;;;;;;;;;;;10.80;83.00;;;;;;5038919;28;19913;-86
2020/12/12 16:02:59;;;;;;;;;;;10.80;83.10;;;;;;5088496;28;19919;-86
2020/12/12 16:05:27;;;;;;;;;;;10.80;83.00;;;;;;5038810;28;19912;-86
2020/12/12 16:07:53;;;;;;;;;;;10.80;83.10;;;;;;5038730;28;19913;-86
2020/12/12 16:10:18;;;;;;;;;;;10.80;83.10;;;;;;5038977;28;19986;-86
2020/12/12 16:12:44;;;;;;;;;;;10.80;83.00;;;;;;5038734;28;19951;-86
2020/12/12 16:15:11;;;;;;;;;;;10.80;83.10;;;;;;5088493;28;20315;-86
2020/12/12 16:17:37;;;;;;;;;;;10.80;83.10;;;;;;5038836;28;20000;-87
2020/12/12 16:20:02;;;;;;;;;;;10.80;83.10;;;;;;5054847;28;19954;-87
2020/12/12 16:22:28;;;;;;;;;;;10.70;83.00;;;;;;5055211;28;19962;-86
2020/12/12 16:24:53;;;;;;;;;;;10.80;83.10;;;;;;5038104;28;19921;-86
2020/12/12 16:27:19;;;;;;;;;;;10.80;83.10;;;;;;5038617;28;20433;-87
2020/12/12 16:29:44;;;;;;;;;;;10.80;83.00;;;;;;5055198;28;19917;-86
2020/12/12 16:32:10;;;;;;;;;;;10.80;83.10;;;;;;5038120;28;19936;-86
2020/12/12 16:34:36;;;;;;;;;;;10.70;83.00;;;;;;5054937;28;19908;-86
2020/12/12 16:37:01;;;;;;;;;;;10.80;83.00;;;;;;5037958;28;20391;-86
2020/12/12 16:39:27;;;;;;;;;;;10.70;83.00;;;;;;5038127;28;19920;-86
2020/12/12 16:41:54;;;;;;;;;;;10.70;83.00;;;;;;5037985;28;20357;-86
2020/12/12 16:44:19;;;;;;;;;;;10.70;83.00;;;;;;5054732;28;20357;-87
2020/12/12 16:46:45;;;;;;;;;;;10.70;83.00;;;;;;5038112;28;19958;-86
2020/12/12 16:49:11;;;;;;;;;;;10.70;83.00;;;;;;5087930;28;19967;-86
2020/12/12 16:51:37;;;;;;;;;;;10.70;83.00;;;;;;5088299;28;19916;-86
2020/12/12 16:54:06;;;;;;;;;;;10.70;83.00;;;;;;5054222;28;19916;-86
2020/12/12 16:56:38;;;;;;;;;;;10.70;83.00;;;;;;5054608;28;20003;-87
2020/12/12 16:59:04;;;;;;;;;;;10.70;83.10;;;;;;5037687;28;20347;-86